Time;durP1;ratioP1;P1;durP2;ratioP2;P2;SDS_P1;SDS_P2;PMS_P1;PMS_P2;Temp;Humidity;BMP_temperature;BMP_pressure;BME280_temperature;BME280_humidity;BME280_pressure;Samples;Min_cycle;Max_cycle;Signal;HPM_P1;HPM_P2
2020/12/27 00:02:15;;;;;;;1013.17;803.17;;;-2.10;97.90;;;;;;12241415;23;85115;-90
2020/12/27 00:07:18;;;;;;;1021.67;807.00;;;-2.10;97.80;;;;;;12240220;23;86300;-90
2020/12/27 00:12:20;;;;;;;1003.30;804.97;;;-2.20;97.90;;;;;;12260344;23;85428;-91
2020/12/27 00:17:22;;;;;;;960.80;802.17;;;-2.20;98.00;;;;;;12302412;23;85520;-89
2020/12/27 00:22:25;;;;;;;987.63;802.90;;;-2.20;98.00;;;;;;12300754;23;86234;-90
2020/12/27 00:27:26;;;;;;;1003.80;802.23;;;-2.40;98.00;;;;;;12336192;23;85828;-90
2020/12/27 00:32:28;;;;;;;1012.50;803.97;;;-2.40;98.10;;;;;;12431281;23;85350;-91
2020/12/27 00:37:33;;;;;;;1054.43;809.57;;;-2.40;98.20;;;;;;12488121;23;85544;-89
2020/12/27 00:42:35;;;;;;;1030.43;804.77;;;-2.50;98.30;;;;;;12544427;23;85416;-90
2020/12/27 00:47:37;;;;;;;1018.70;801.33;;;-2.50;98.40;;;;;;12546401;23;85145;-90
2020/12/27 00:52:40;;;;;;;1008.70;802.53;;;-2.50;98.40;;;;;;12445969;23;84945;-90
2020/12/27 00:57:42;;;;;;;1010.57;804.30;;;-2.60;98.40;;;;;;12420405;23;86033;-89
2020/12/27 01:02:44;;;;;;;988.20;798.23;;;-2.60;98.60;;;;;;12445075;23;85425;-90
2020/12/27 01:08:15;;;;;;;989.07;795.53;;;-2.60;98.80;;;;;;12444340;23;85033;-91
2020/12/27 01:13:17;;;;;;;1017.53;800.40;;;-2.60;99.00;;;;;;12385751;23;85199;-90
2020/12/27 01:18:20;;;;;;;983.77;786.67;;;-2.60;99.00;;;;;;12362451;23;85229;-90
2020/12/27 01:23:28;;;;;;;882.63;692.97;;;-2.60;98.90;;;;;;12446421;23;85130;-90
2020/12/27 01:28:30;;;;;;;962.00;790.40;;;-2.50;98.90;;;;;;12326482;23;85183;-91
2020/12/27 01:33:39;;;;;;;766.43;570.83;;;-2.50;98.80;;;;;;12268782;23;85233;-90
2020/12/27 01:38:42;;;;;;;874.00;681.70;;;-2.50;98.90;;;;;;12245900;23;85581;-91
2020/12/27 01:43:58;;;;;;;596.17;438.77;;;-2.50;98.90;;;;;;12248584;23;85032;-90
2020/12/27 01:49:00;;;;;;;172.60;86.43;;;-2.50;98.80;;;;;;12243444;23;85647;-91
2020/12/27 01:54:04;;;;;;;388.10;234.47;;;-2.50;98.90;;;;;;12156754;24;85026;-91
2020/12/27 01:59:39;;;;;;;569.73;391.50;;;-2.50;98.90;;;;;;12175939;23;85162;-92
2020/12/27 02:05:01;;;;;;;373.07;267.60;;;-2.60;98.80;;;;;;12306549;23;85359;-90
2020/12/27 02:10:04;;;;;;;929.20;735.30;;;-2.60;98.90;;;;;;12302611;23;85072;-90
2020/12/27 02:15:08;;;;;;;303.67;171.40;;;-2.70;98.80;;;;;;12350769;23;85623;-89
2020/12/27 02:20:30;;;;;;;245.90;160.27;;;-2.80;98.80;;;;;;12385865;23;84963;-91
2020/12/27 02:25:43;;;;;;;841.87;638.83;;;-2.80;98.90;;;;;;12477837;23;84933;-90
2020/12/27 02:30:53;;;;;;;872.77;652.70;;;-2.80;98.90;;;;;;12484611;23;85667;-90
2020/12/27 02:35:55;;;;;;;979.43;744.73;;;-2.80;98.90;;;;;;12484560;23;85071;-87
2020/12/27 02:41:02;;;;;;;590.03;336.93;;;-2.80;98.80;;;;;;12498545;23;85722;-90
2020/12/27 02:46:20;;;;;;;458.63;243.70;;;-2.80;98.80;;;;;;12511211;23;84845;-90
2020/12/27 02:51:40;;;;;;;806.90;542.40;;;-2.80;98.90;;;;;;12511166;23;84866;-90
2020/12/27 02:56:44;;;;;;;995.30;740.47;;;-2.80;98.80;;;;;;12509198;23;85928;-90
2020/12/27 03:01:46;;;;;;;1084.47;803.43;;;-2.80;98.90;;;;;;12505816;23;85887;-90
2020/12/27 03:07:22;;;;;;;1075.13;800.33;;;-2.90;98.90;;;;;;12495070;23;85421;-90
2020/12/27 03:12:35;;;;;;;1115.90;805.57;;;-2.90;98.90;;;;;;12492058;23;85446;-91
2020/12/27 03:17:37;;;;;;;1084.43;799.53;;;-2.80;99.00;;;;;;12493335;23;85343;-90
2020/12/27 03:23:06;;;;;;;1094.93;800.87;;;-2.90;98.80;;;;;;12488308;23;85319;-90
2020/12/27 03:28:21;;;;;;;1126.63;808.73;;;-3.00;98.90;;;;;;12430865;23;85040;-90
2020/12/27 03:33:29;;;;;;;1093.33;805.67;;;-3.00;98.90;;;;;;12399687;23;85915;-90
2020/12/27 03:38:34;;;;;;;1066.97;797.50;;;-3.10;98.90;;;;;;12403148;23;85177;-91
2020/12/27 03:44:13;;;;;;;1064.33;794.43;;;-3.10;98.90;;;;;;12414067;23;86249;-90
2020/12/27 03:49:33;;;;;;;1066.93;792.93;;;-3.10;99.00;;;;;;12430380;23;85248;-90
2020/12/27 03:54:55;;;;;;;1032.03;786.10;;;-3.10;99.00;;;;;;12402470;23;85515;-89
2020/12/27 04:00:33;;;;;;;1095.30;796.53;;;-3.00;99.10;;;;;;12309437;23;85155;-91
2020/12/27 04:05:51;;;;;;;1078.00;794.73;;;-3.10;99.00;;;;;;12282480;23;85309;-90
2020/12/27 04:10:58;;;;;;;1058.73;786.73;;;-3.00;99.10;;;;;;12284147;23;85279;-91
2020/12/27 04:16:03;;;;;;;1083.57;794.87;;;-3.00;99.10;;;;;;12284183;23;85143;-90
2020/12/27 04:21:08;;;;;;;1041.27;769.87;;;-2.90;99.10;;;;;;12284421;23;85295;-90
2020/12/27 04:26:14;;;;;;;917.77;621.10;;;-3.00;99.00;;;;;;12285126;23;85295;-90
2020/12/27 04:31:20;;;;;;;997.13;717.13;;;-3.20;99.00;;;;;;12310153;23;85165;-88
2020/12/27 04:36:26;;;;;;;909.90;617.93;;;-3.20;99.10;;;;;;12494640;23;85039;-91
2020/12/27 04:41:30;;;;;;;552.70;320.20;;;-3.30;99.10;;;;;;12492005;23;85292;-90
2020/12/27 04:46:40;;;;;;;700.10;459.27;;;-3.40;99.20;;;;;;12493254;23;84987;-91
2020/12/27 04:51:45;;;;;;;382.43;190.77;;;-3.40;99.50;;;;;;12493089;23;85148;-91
2020/12/27 04:57:14;;;;;;;229.83;117.47;;;-3.40;99.60;;;;;;12492590;23;85118;-90
2020/12/27 05:02:19;;;;;;;335.23;174.57;;;-3.40;99.80;;;;;;12492466;23;85023;-90
2020/12/27 05:07:26;;;;;;;188.30;99.43;;;-3.40;99.80;;;;;;12494257;23;85149;-90
2020/12/27 05:12:48;;;;;;;60.33;39.90;;;-3.40;99.90;;;;;;12497123;23;82695;-90
2020/12/27 05:17:51;;;;;;;926.87;616.93;;;-3.40;99.90;;;;;;12488703;23;86411;-90
2020/12/27 05:23:00;;;;;;;45.03;33.43;;;-3.40;99.90;;;;;;12463434;23;85143;-90
2020/12/27 05:28:17;;;;;;;284.07;165.00;;;-3.30;99.90;;;;;;12429819;23;83790;-90
2020/12/27 05:33:55;;;;;;;1086.10;782.17;;;-3.30;99.90;;;;;;12311712;23;85327;-91
2020/12/27 05:39:17;;;;;;;1004.30;701.20;;;-3.30;99.90;;;;;;12317071;23;85203;-90
2020/12/27 05:44:29;;;;;;;958.33;636.27;;;-3.30;99.90;;;;;;12310753;23;85136;-90
2020/12/27 05:49:34;;;;;;;991.07;678.03;;;-3.20;99.90;;;;;;12261302;23;85475;-90
2020/12/27 05:54:47;;;;;;;961.90;656.60;;;-3.10;99.90;;;;;;12229145;23;85242;-90
2020/12/27 05:59:54;;;;;;;950.37;642.33;;;-3.10;99.90;;;;;;12241432;23;85175;-89
2020/12/27 06:05:16;;;;;;;900.67;590.33;;;-3.00;99.90;;;;;;12304652;23;85039;-90
2020/12/27 06:10:20;;;;;;;954.00;628.07;;;-3.00;99.90;;;;;;12493404;23;84932;-90
2020/12/27 06:15:46;;;;;;;981.67;667.40;;;-2.90;99.90;;;;;;12493863;23;85284;-91
2020/12/27 06:21:24;;;;;;;977.23;661.50;;;-2.90;99.90;;;;;;12491843;23;86500;-91
2020/12/27 06:26:30;;;;;;;1042.17;766.27;;;-2.90;99.90;;;;;;12493971;23;85167;-87
2020/12/27 06:31:50;;;;;;;1016.37;723.83;;;-2.80;99.90;;;;;;12493351;23;85205;-90
2020/12/27 06:37:22;;;;;;;316.40;150.97;;;-2.80;99.90;;;;;;12484605;23;85146;-89
2020/12/27 06:42:50;;;;;;;48.03;32.43;;;-2.70;99.90;;;;;;12307797;23;85364;-90
2020/12/27 06:48:00;;;;;;;19.50;16.90;;;-2.70;99.90;;;;;;12289568;23;83341;-90
2020/12/27 06:53:43;;;;;;;17.57;12.77;;;-2.70;99.90;;;;;;12293179;23;85186;-90
2020/12/27 06:59:01;;;;;;;25.00;16.83;;;-2.70;99.90;;;;;;12290767;23;84281;-91
2020/12/27 07:04:13;;;;;;;9.47;8.67;;;-2.60;99.90;;;;;;12289657;23;85602;-90
2020/12/27 07:09:22;;;;;;;9.03;8.33;;;-2.60;99.90;;;;;;12314419;23;84250;-89
2020/12/27 07:14:27;;;;;;;7.07;6.57;;;-2.60;99.90;;;;;;12294040;23;84659;-90
2020/12/27 07:19:29;;;;;;;431.57;234.43;;;-2.60;99.90;;;;;;12462503;23;84666;-90
2020/12/27 07:24:35;;;;;;;91.13;49.87;;;-2.60;99.90;;;;;;12534324;23;84942;-90
2020/12/27 07:29:37;;;;;;;11.87;10.83;;;-2.50;99.90;;;;;;12534570;23;84771;-91
2020/12/27 07:34:40;;;;;;;678.60;413.57;;;-2.50;99.90;;;;;;12538977;23;84161;-91
2020/12/27 07:39:55;;;;;;;200.77;100.10;;;-2.40;99.90;;;;;;12533648;23;85094;-91
2020/12/27 07:44:58;;;;;;;28.57;13.30;;;-2.30;99.90;;;;;;12529021;23;85749;-91
2020/12/27 07:50:05;;;;;;;357.70;165.17;;;-2.20;99.90;;;;;;12534593;23;84337;-89
2020/12/27 07:55:08;;;;;;;739.80;484.00;;;-2.10;99.90;;;;;;12527180;23;86652;-91
2020/12/27 08:00:09;;;;;;;1002.23;715.60;;;-2.10;99.90;;;;;;12531535;23;85042;-90
2020/12/27 08:05:15;;;;;;;1103.60;794.20;;;-2.00;99.90;;;;;;12554778;23;85049;-91
2020/12/27 08:10:21;;;;;;;1057.03;790.63;;;-1.90;99.90;;;;;;12528804;23;85778;-92
2020/12/27 08:15:26;;;;;;;1064.53;790.00;;;-1.70;99.80;;;;;;12528359;23;85663;-90
2020/12/27 08:20:33;;;;;;;1067.97;795.17;;;-1.70;99.70;;;;;;12426090;23;85232;-89
2020/12/27 08:25:37;;;;;;;1023.00;764.37;;;-1.60;99.70;;;;;;12365907;23;85225;-91
2020/12/27 08:30:40;;;;;;;1056.20;785.40;;;-1.60;99.60;;;;;;12194873;23;85348;-92
2020/12/27 08:35:44;;;;;;;713.90;415.77;;;-1.50;99.60;;;;;;12169157;23;85217;-92
2020/12/27 08:40:59;;;;;;;913.70;611.63;;;-1.40;99.50;;;;;;12169798;23;85785;-92
2020/12/27 08:46:06;;;;;;;967.50;707.83;;;-1.20;99.50;;;;;;12167985;23;86655;-91
2020/12/27 08:51:08;;;;;;;63.83;37.73;;;-1.10;99.40;;;;;;12269203;23;85587;-91
2020/12/27 08:56:12;;;;;;;570.37;319.53;;;-1.00;99.30;;;;;;12252753;23;84843;-90
2020/12/27 09:01:22;;;;;;;502.47;283.00;;;-0.70;99.20;;;;;;12213707;23;85305;-91
2020/12/27 09:06:24;;;;;;;634.40;394.53;;;-0.60;99.10;;;;;;12182746;23;85376;-90
2020/12/27 09:11:27;;;;;;;504.70;281.83;;;-0.40;99.00;;;;;;12228697;23;85299;-90
2020/12/27 09:16:34;;;;;;;561.73;341.37;;;-0.40;98.80;;;;;;12254275;23;85086;-91
2020/12/27 09:21:41;;;;;;;470.27;268.00;;;-0.20;98.70;;;;;;12235699;23;85484;-91
2020/12/27 09:26:44;;;;;;;264.47;130.83;;;-0.20;98.70;;;;;;12201053;23;85077;-90
2020/12/27 09:31:47;;;;;;;193.57;117.70;;;-0.10;98.60;;;;;;12305358;23;85159;-90
2020/12/27 09:36:49;;;;;;;297.57;153.60;;;0.00;98.60;;;;;;12254431;23;85539;-89
2020/12/27 09:41:52;;;;;;;92.30;50.80;;;0.10;98.50;;;;;;12265553;23;85096;-90
2020/12/27 09:52:05;;;;;;;213.73;105.00;;;0.20;98.30;;;;;;12370197;23;82883;-70
2020/12/27 09:57:12;;;;;;;182.63;89.77;;;0.20;98.20;;;;;;12365905;23;85370;-71
2020/12/27 10:02:14;;;;;;;226.27;109.40;;;0.20;98.30;;;;;;12366816;23;83649;-71
2020/12/27 10:07:16;;;;;;;745.03;532.13;;;0.40;98.20;;;;;;12365424;23;85438;-70
2020/12/27 10:12:19;;;;;;;996.67;790.43;;;0.40;98.20;;;;;;12366530;23;85490;-71
2020/12/27 10:17:21;;;;;;;1035.17;806.57;;;0.60;98.20;;;;;;12365404;23;84846;-71
2020/12/27 10:22:22;;;;;;;1039.03;803.93;;;0.70;98.10;;;;;;12364928;23;85826;-71
2020/12/27 10:27:25;;;;;;;1032.97;802.07;;;0.80;97.90;;;;;;12366046;23;85549;-72
2020/12/27 10:32:27;;;;;;;1056.77;803.17;;;0.90;97.90;;;;;;12340847;23;85725;-70
2020/12/27 10:37:28;;;;;;;1099.90;804.10;;;1.00;97.80;;;;;;12365004;23;85574;-71
2020/12/27 10:42:31;;;;;;;1096.20;810.07;;;1.00;97.80;;;;;;12365069;23;85426;-71
2020/12/27 10:47:33;;;;;;;1128.43;810.13;;;1.10;97.70;;;;;;12366123;23;85375;-72
2020/12/27 10:52:34;;;;;;;1162.47;811.47;;;1.20;97.70;;;;;;12363345;23;85646;-72
2020/12/27 10:57:39;;;;;;;1141.13;816.07;;;1.40;97.80;;;;;;12363042;23;85387;-71
2020/12/27 11:02:41;;;;;;;1073.63;804.10;;;1.50;97.60;;;;;;12363413;23;85337;-72
2020/12/27 11:07:43;;;;;;;1102.77;812.43;;;1.50;97.50;;;;;;12364657;23;85929;-71
2020/12/27 11:12:46;;;;;;;987.40;755.90;;;1.60;97.50;;;;;;12365486;23;85558;-71
2020/12/27 11:17:47;;;;;;;961.87;766.10;;;1.60;97.30;;;;;;12364344;23;85368;-71
2020/12/27 11:22:49;;;;;;;882.23;663.87;;;1.50;97.40;;;;;;12365809;23;85512;-72
2020/12/27 11:27:52;;;;;;;919.23;701.73;;;1.60;97.40;;;;;;12365053;23;85422;-71
2020/12/27 11:32:53;;;;;;;949.00;749.27;;;1.40;97.30;;;;;;12365103;23;85923;-72
2020/12/27 11:37:55;;;;;;;655.70;431.47;;;1.40;97.50;;;;;;12362607;23;85621;-71
2020/12/27 11:42:59;;;;;;;991.30;778.43;;;1.30;97.50;;;;;;12364996;23;85381;-71
2020/12/27 11:48:00;;;;;;;986.27;750.73;;;1.30;97.70;;;;;;12362389;23;85432;-71
2020/12/27 11:53:02;;;;;;;990.93;792.13;;;1.30;97.70;;;;;;12363168;23;85474;-71
2020/12/27 11:58:06;;;;;;;784.17;563.30;;;1.50;97.50;;;;;;12364143;23;85475;-71
2020/12/27 12:03:07;;;;;;;949.07;729.37;;;1.60;97.20;;;;;;12360217;23;85771;-71
2020/12/27 12:08:09;;;;;;;988.03;767.90;;;1.70;97.00;;;;;;12361655;23;85297;-71
2020/12/27 12:13:12;;;;;;;898.17;694.17;;;1.90;97.00;;;;;;12363508;23;85521;-72
2020/12/27 12:18:13;;;;;;;976.97;782.93;;;2.00;96.80;;;;;;12362918;23;85525;-72
2020/12/27 12:23:15;;;;;;;879.80;700.30;;;2.00;96.60;;;;;;12362771;23;85554;-72
2020/12/27 12:28:18;;;;;;;890.60;710.13;;;2.00;96.50;;;;;;12361714;23;85225;-72
2020/12/27 12:33:19;;;;;;;631.03;424.43;;;2.00;96.30;;;;;;12358452;23;85583;-71
2020/12/27 12:38:21;;;;;;;661.63;445.00;;;1.90;96.10;;;;;;12361075;23;85237;-71
2020/12/27 12:43:24;;;;;;;356.40;190.67;;;1.70;96.10;;;;;;12365180;23;85489;-71
2020/12/27 12:48:26;;;;;;;290.30;186.20;;;1.60;96.00;;;;;;12363980;23;85089;-71
2020/12/27 12:53:27;;;;;;;416.33;224.33;;;1.40;96.00;;;;;;12365945;23;85664;-71
2020/12/27 12:58:30;;;;;;;413.87;210.33;;;1.30;96.20;;;;;;12363968;23;85008;-72
2020/12/27 13:03:32;;;;;;;476.63;261.10;;;1.20;96.20;;;;;;12363876;23;85393;-71
2020/12/27 13:08:36;;;;;;;333.73;191.27;;;1.00;96.10;;;;;;12364200;23;85381;-71
2020/12/27 13:13:38;;;;;;;523.33;303.27;;;1.10;96.10;;;;;;12366060;23;85141;-71
2020/12/27 13:18:40;;;;;;;689.40;459.77;;;1.10;96.20;;;;;;12366969;23;85502;-71
2020/12/27 13:23:42;;;;;;;610.87;392.13;;;1.00;96.10;;;;;;12364657;23;85623;-70
2020/12/27 13:28:46;;;;;;;834.33;600.37;;;1.00;96.20;;;;;;12364754;23;85654;-71
2020/12/27 13:33:47;;;;;;;624.10;387.27;;;1.00;96.60;;;;;;12364465;23;85378;-70
2020/12/27 13:38:49;;;;;;;457.30;281.60;;;1.00;96.40;;;;;;12366617;23;85296;-70
2020/12/27 13:43:54;;;;;;;542.40;334.70;;;1.00;96.30;;;;;;12366493;23;85245;-71
2020/12/27 13:48:56;;;;;;;793.03;570.33;;;1.00;96.30;;;;;;12364177;23;84996;-71
2020/12/27 13:53:58;;;;;;;822.20;610.03;;;1.10;96.30;;;;;;12366501;23;85505;-72
2020/12/27 13:59:01;;;;;;;892.13;696.33;;;1.10;96.20;;;;;;12365072;23;85408;-72
2020/12/27 14:04:04;;;;;;;737.37;510.13;;;1.10;96.20;;;;;;12339317;23;85267;-71
2020/12/27 14:09:06;;;;;;;547.57;318.00;;;1.10;96.10;;;;;;12364946;23;85470;-72
2020/12/27 14:14:09;;;;;;;264.60;146.13;;;1.10;96.10;;;;;;12338487;23;85792;-70
2020/12/27 14:19:10;;;;;;;885.57;671.47;;;1.10;96.10;;;;;;12366053;23;85705;-71
2020/12/27 14:24:12;;;;;;;941.37;699.30;;;1.10;96.00;;;;;;12366762;23;84975;-71
2020/12/27 14:29:15;;;;;;;857.87;619.90;;;1.10;95.80;;;;;;12342311;23;85378;-71
2020/12/27 14:34:17;;;;;;;796.90;522.07;;;1.00;95.70;;;;;;12366405;23;85441;-71
2020/12/27 14:39:21;;;;;;;632.80;364.80;;;1.00;95.70;;;;;;12366612;23;85442;-72
2020/12/27 14:44:25;;;;;;;972.43;716.80;;;1.00;95.70;;;;;;12367997;23;85810;-72
2020/12/27 14:49:27;;;;;;;901.37;611.97;;;0.90;95.80;;;;;;12367651;23;85363;-72
2020/12/27 14:54:31;;;;;;;727.27;460.90;;;0.90;96.00;;;;;;12341212;23;85463;-71
2020/12/27 14:59:33;;;;;;;681.63;421.93;;;0.90;96.10;;;;;;12366922;23;85343;-71
2020/12/27 15:04:35;;;;;;;660.13;403.43;;;0.90;96.20;;;;;;12366197;23;85571;-71
2020/12/27 15:09:39;;;;;;;670.70;436.50;;;0.80;96.30;;;;;;12365119;23;85829;-72
2020/12/27 15:14:41;;;;;;;624.40;394.43;;;0.90;96.40;;;;;;12366811;23;85323;-70
2020/12/27 15:19:43;;;;;;;417.50;294.43;;;0.80;96.50;;;;;;12360207;23;85498;-71
2020/12/27 15:24:44;;;;;;;752.07;516.67;;;0.90;96.60;;;;;;12364312;23;85593;-72
2020/12/27 15:29:47;;;;;;;674.10;427.67;;;0.90;96.60;;;;;;12363099;23;85700;-71
2020/12/27 15:34:53;;;;;;;701.03;459.53;;;0.90;96.60;;;;;;12363376;23;85755;-71
2020/12/27 15:39:55;;;;;;;196.30;95.77;;;0.80;96.60;;;;;;12362750;23;85639;-71
2020/12/27 15:44:57;;;;;;;203.93;99.70;;;0.80;96.70;;;;;;12338729;23;85660;-72
2020/12/27 15:50:00;;;;;;;242.47;115.80;;;0.80;96.80;;;;;;12364524;23;83913;-72
2020/12/27 15:55:01;;;;;;;248.97;120.50;;;0.70;97.00;;;;;;12361896;23;85436;-71
2020/12/27 16:00:04;;;;;;;260.83;123.77;;;0.70;97.10;;;;;;12362146;23;85308;-71
2020/12/27 16:05:10;;;;;;;222.10;104.27;;;0.60;97.10;;;;;;12363206;23;85330;-70
2020/12/27 16:10:12;;;;;;;211.27;99.60;;;0.60;97.30;;;;;;12362716;23;85334;-71
2020/12/27 16:15:14;;;;;;;155.10;75.83;;;0.50;97.30;;;;;;12366739;23;83281;-71
2020/12/27 16:20:16;;;;;;;277.93;136.13;;;0.50;97.40;;;;;;12368021;23;83529;-71
2020/12/27 16:25:18;;;;;;;227.60;111.00;;;0.50;97.40;;;;;;12365043;23;84895;-71
2020/12/27 16:30:21;;;;;;;431.47;231.13;;;0.40;97.40;;;;;;12361452;23;85283;-71
2020/12/27 16:35:22;;;;;;;440.87;235.83;;;0.50;97.50;;;;;;12365151;23;85675;-71
2020/12/27 16:40:24;;;;;;;393.57;210.07;;;0.50;97.50;;;;;;12365579;23;85817;-71
2020/12/27 16:45:26;;;;;;;410.13;226.00;;;0.50;97.50;;;;;;12380341;23;85616;-71
2020/12/27 16:50:29;;;;;;;395.67;201.60;;;0.50;97.40;;;;;;12361503;23;84941;-71
2020/12/27 16:55:31;;;;;;;209.67;101.67;;;0.50;97.50;;;;;;12388869;23;85041;-70
2020/12/27 17:00:35;;;;;;;132.93;66.93;;;0.50;97.40;;;;;;12385425;23;84933;-72
2020/12/27 17:05:40;;;;;;;534.93;312.27;;;0.50;97.40;;;;;;12388512;23;83887;-72
2020/12/27 17:10:42;;;;;;;672.13;433.77;;;0.50;97.40;;;;;;12388109;23;85347;-71
2020/12/27 17:15:44;;;;;;;731.87;488.37;;;0.60;97.40;;;;;;12386300;23;85254;-71
2020/12/27 17:20:46;;;;;;;701.00;460.73;;;0.50;97.30;;;;;;12387580;23;84849;-71
2020/12/27 17:25:48;;;;;;;562.93;337.70;;;0.50;97.40;;;;;;12388228;23;84973;-71
2020/12/27 17:30:50;;;;;;;625.87;401.07;;;0.50;97.30;;;;;;12383015;23;86168;-72
2020/12/27 17:35:52;;;;;;;884.07;661.83;;;0.50;97.30;;;;;;12385048;23;85290;-70
2020/12/27 17:40:54;;;;;;;814.67;601.60;;;0.50;97.30;;;;;;12358435;23;84938;-72
2020/12/27 17:45:56;;;;;;;937.73;742.20;;;0.60;97.20;;;;;;12385180;23;85374;-72
2020/12/27 17:51:01;;;;;;;905.60;703.93;;;0.60;97.20;;;;;;12385693;23;84907;-71
2020/12/27 17:56:02;;;;;;;930.07;769.30;;;0.60;97.20;;;;;;12386896;23;85249;-71
2020/12/27 18:01:05;;;;;;;857.93;677.87;;;0.70;97.30;;;;;;12386712;23;84890;-71
2020/12/27 18:06:07;;;;;;;867.53;686.00;;;0.80;97.30;;;;;;12386016;23;86287;-72
2020/12/27 18:11:14;;;;;;;807.23;617.00;;;0.90;97.30;;;;;;12384485;23;85363;-72
2020/12/27 18:16:16;;;;;;;754.53;549.60;;;0.90;97.20;;;;;;12382075;23;85349;-71
2020/12/27 18:21:18;;;;;;;615.90;431.37;;;0.90;97.40;;;;;;12386356;23;85165;-72
2020/12/27 18:26:20;;;;;;;932.73;792.27;;;0.90;97.30;;;;;;12386653;23;84869;-71
2020/12/27 18:31:23;;;;;;;944.47;795.37;;;0.90;97.20;;;;;;12386662;23;85492;-72
2020/12/27 18:36:27;;;;;;;921.13;759.60;;;1.00;97.40;;;;;;12386592;23;85258;-71
2020/12/27 18:41:29;;;;;;;940.87;800.53;;;0.90;97.40;;;;;;12358552;23;85771;-71
2020/12/27 18:46:31;;;;;;;987.03;797.67;;;1.00;97.50;;;;;;12385405;23;85313;-71
2020/12/27 18:51:33;;;;;;;500.90;296.67;;;0.90;97.40;;;;;;12385653;23;86104;-71
2020/12/27 18:56:35;;;;;;;808.50;575.27;;;0.90;97.50;;;;;;12385904;23;85537;-71
2020/12/27 19:01:38;;;;;;;756.30;517.37;;;0.90;97.60;;;;;;12385281;23;85126;-71
2020/12/27 19:06:39;;;;;;;753.50;533.83;;;1.00;97.60;;;;;;12384998;23;85127;-72
2020/12/27 19:11:41;;;;;;;549.33;317.27;;;1.00;97.50;;;;;;12386475;23;85019;-71
2020/12/27 19:16:44;;;;;;;495.70;283.77;;;0.90;97.40;;;;;;12385979;23;84969;-71
2020/12/27 19:21:46;;;;;;;528.03;307.03;;;0.80;97.40;;;;;;12382736;23;84956;-71
2020/12/27 19:26:48;;;;;;;607.47;382.90;;;0.70;97.50;;;;;;12387569;23;85502;-70
2020/12/27 19:31:50;;;;;;;935.37;761.40;;;0.70;97.50;;;;;;12387589;23;85314;-69
2020/12/27 19:36:52;;;;;;;966.80;795.10;;;0.60;97.60;;;;;;12387185;23;85950;-71
2020/12/27 19:41:54;;;;;;;965.50;796.03;;;0.60;97.70;;;;;;12387138;23;85360;-70
2020/12/27 19:46:57;;;;;;;983.87;798.87;;;0.70;97.80;;;;;;12387385;23;85124;-69
2020/12/27 19:51:59;;;;;;;1007.33;802.80;;;0.70;97.80;;;;;;12387352;23;84998;-71
2020/12/27 19:57:00;;;;;;;1067.80;806.13;;;0.70;97.80;;;;;;12384389;23;84973;-70
2020/12/27 20:02:03;;;;;;;1088.33;811.83;;;0.80;97.90;;;;;;12384701;23;85361;-70
2020/12/27 20:07:05;;;;;;;1093.67;811.70;;;0.80;97.90;;;;;;12385147;23;85246;-70
2020/12/27 20:12:07;;;;;;;1043.60;803.10;;;0.80;97.90;;;;;;12384927;23;85460;-70
2020/12/27 20:17:09;;;;;;;865.70;686.10;;;0.90;97.90;;;;;;12384586;23;85263;-71
2020/12/27 20:22:11;;;;;;;256.60;169.67;;;0.80;97.90;;;;;;12384496;23;85228;-71
2020/12/27 20:27:13;;;;;;;228.97;132.07;;;0.80;98.00;;;;;;12385403;23;85187;-70
2020/12/27 20:32:15;;;;;;;332.90;217.47;;;0.80;98.10;;;;;;12384314;23;85270;-70
2020/12/27 20:37:17;;;;;;;297.67;172.20;;;0.90;98.10;;;;;;12383894;23;84876;-70
2020/12/27 20:42:19;;;;;;;134.90;70.27;;;0.90;98.20;;;;;;12385249;23;84975;-70
2020/12/27 20:47:21;;;;;;;231.87;125.10;;;0.90;98.20;;;;;;12387290;23;82653;-71
2020/12/27 20:52:23;;;;;;;251.63;144.57;;;1.00;98.20;;;;;;12379760;23;84905;-71
2020/12/27 20:57:24;;;;;;;133.70;68.93;;;1.00;98.30;;;;;;12383913;23;85172;-72
2020/12/27 21:02:28;;;;;;;115.37;59.17;;;1.10;98.20;;;;;;12389688;23;83087;-71
2020/12/27 21:07:30;;;;;;;123.23;58.60;;;1.10;98.10;;;;;;12393182;23;82874;-70
2020/12/27 21:12:32;;;;;;;297.80;154.67;;;1.10;98.30;;;;;;12389354;23;82478;-72
2020/12/27 21:17:44;;;;;;;397.17;221.00;;;1.00;98.30;;;;;;12383373;23;85093;-70
2020/12/27 21:22:48;;;;;;;666.40;473.07;;;1.10;98.20;;;;;;12387899;23;85314;-71
2020/12/27 21:27:50;;;;;;;835.43;693.40;;;1.00;98.30;;;;;;12389784;23;85015;-71
2020/12/27 21:32:52;;;;;;;402.87;247.13;;;1.10;98.40;;;;;;12383772;23;85417;-73
2020/12/27 21:37:54;;;;;;;321.50;173.47;;;1.10;98.40;;;;;;12387379;23;85245;-72
2020/12/27 21:42:56;;;;;;;611.03;412.73;;;1.10;98.40;;;;;;12388955;23;85176;-73
2020/12/27 21:47:58;;;;;;;563.77;367.20;;;1.10;98.40;;;;;;12387474;23;84998;-73
2020/12/27 21:53:00;;;;;;;286.40;144.80;;;1.10;98.60;;;;;;12388184;23;84981;-72
2020/12/27 21:58:02;;;;;;;417.53;257.43;;;1.10;98.60;;;;;;12385773;23;85229;-72
2020/12/27 22:03:04;;;;;;;397.80;228.80;;;1.10;98.60;;;;;;12387415;23;85481;-71
2020/12/27 22:08:06;;;;;;;463.17;279.53;;;1.20;98.60;;;;;;12385895;23;85168;-71
2020/12/27 22:13:08;;;;;;;635.13;449.97;;;1.10;98.60;;;;;;12386413;23;85368;-71
2020/12/27 22:18:10;;;;;;;829.13;730.60;;;1.20;98.60;;;;;;12387721;23;85007;-71
2020/12/27 22:23:12;;;;;;;881.60;787.63;;;1.30;98.60;;;;;;12388140;23;85428;-71
2020/12/27 22:28:16;;;;;;;965.23;804.70;;;1.30;98.50;;;;;;12388439;23;84853;-71
2020/12/27 22:33:18;;;;;;;1021.40;801.90;;;1.30;98.40;;;;;;12388429;23;85020;-71
2020/12/27 22:38:20;;;;;;;961.13;802.40;;;1.30;98.40;;;;;;12387388;23;85685;-71
2020/12/27 22:43:23;;;;;;;967.83;804.17;;;1.30;98.30;;;;;;12388406;23;85250;-70
2020/12/27 22:48:26;;;;;;;904.10;801.50;;;1.40;98.30;;;;;;12388483;23;85480;-70
2020/12/27 22:53:28;;;;;;;979.93;802.83;;;1.30;98.20;;;;;;12390153;23;85251;-71
2020/12/27 22:58:29;;;;;;;936.83;799.67;;;1.40;98.30;;;;;;12389839;23;84871;-71
2020/12/27 23:03:32;;;;;;;947.50;805.70;;;1.50;98.20;;;;;;12363061;23;86414;-71
2020/12/27 23:08:34;;;;;;;897.13;799.70;;;1.50;98.20;;;;;;12389800;23;85193;-71
2020/12/27 23:13:36;;;;;;;910.83;786.90;;;1.50;98.30;;;;;;12387996;23;84943;-71
2020/12/27 23:18:38;;;;;;;915.23;788.53;;;1.60;98.10;;;;;;12389587;23;85326;-70
2020/12/27 23:23:40;;;;;;;896.57;788.67;;;1.50;98.10;;;;;;12389294;23;84935;-70
2020/12/27 23:28:42;;;;;;;929.30;794.73;;;1.40;98.20;;;;;;12388806;23;84804;-71
2020/12/27 23:33:44;;;;;;;781.23;607.93;;;1.30;98.30;;;;;;12387776;23;85089;-71
2020/12/27 23:38:46;;;;;;;888.63;790.47;;;1.30;98.40;;;;;;12387523;23;86157;-72
2020/12/27 23:43:47;;;;;;;935.80;797.03;;;1.40;98.50;;;;;;12389401;23;84885;-71
2020/12/27 23:48:50;;;;;;;941.00;797.83;;;1.40;98.50;;;;;;12388150;23;85003;-72
2020/12/27 23:53:52;;;;;;;951.37;797.27;;;1.40;98.50;;;;;;12388730;23;85845;-71
2020/12/27 23:58:55;;;;;;;935.17;799.30;;;1.30;98.70;;;;;;12387294;23;85015;-71
